sensor_id;sensor_type;location;lat;lon;timestamp;P1;durP1;ratioP1;P2;durP2;ratioP2
2622;SDS011;1321;48.690;9.022;2023-01-15T00:01:48;2.90;;;2.80;;
2622;SDS011;1321;48.690;9.022;2023-01-15T00:04:16;2.70;;;2.60;;
2622;SDS011;1321;48.690;9.022;2023-01-15T00:06:45;3.00;;;2.80;;
2622;SDS011;1321;48.690;9.022;2023-01-15T00:09:13;3.03;;;2.93;;
2622;SDS011;1321;48.690;9.022;2023-01-15T00:11:42;3.00;;;2.90;;
2622;SDS011;1321;48.690;9.022;2023-01-15T00:14:10;3.43;;;3.33;;
2622;SDS011;1321;48.690;9.022;2023-01-15T00:16:39;3.40;;;3.30;;
2622;SDS011;1321;48.690;9.022;2023-01-15T00:19:09;3.90;;;3.80;;
2622;SDS011;1321;48.690;9.022;2023-01-15T00:21:38;3.50;;;3.40;;
2622;SDS011;1321;48.690;9.022;2023-01-15T00:24:07;3.63;;;3.53;;
2622;SDS011;1321;48.690;9.022;2023-01-15T00:26:53;3.40;;;3.30;;
2622;SDS011;1321;48.690;9.022;2023-01-15T00:29:41;3.40;;;3.30;;
2622;SDS011;1321;48.690;9.022;2023-01-15T00:32:09;3.40;;;3.30;;
2622;SDS011;1321;48.690;9.022;2023-01-15T00:34:39;3.50;;;3.30;;
2622;SDS011;1321;48.690;9.022;2023-01-15T00:37:07;3.40;;;3.30;;
2622;SDS011;1321;48.690;9.022;2023-01-15T00:39:35;3.20;;;3.10;;
2622;SDS011;1321;48.690;9.022;2023-01-15T00:42:03;3.50;;;3.40;;
2622;SDS011;1321;48.690;9.022;2023-01-15T00:44:31;3.20;;;3.10;;
2622;SDS011;1321;48.690;9.022;2023-01-15T00:46:59;3.20;;;3.10;;
2622;SDS011;1321;48.690;9.022;2023-01-15T00:49:27;3.50;;;3.40;;
2622;SDS011;1321;48.690;9.022;2023-01-15T00:51:57;3.13;;;3.03;;
2622;SDS011;1321;48.690;9.022;2023-01-15T00:54:25;3.27;;;3.17;;
2622;SDS011;1321;48.690;9.022;2023-01-15T00:56:53;3.27;;;3.17;;
2622;SDS011;1321;48.690;9.022;2023-01-15T00:59:21;3.70;;;3.60;;
2622;SDS011;1321;48.690;9.022;2023-01-15T01:01:49;3.80;;;3.70;;
2622;SDS011;1321;48.690;9.022;2023-01-15T01:04:18;3.80;;;3.70;;
2622;SDS011;1321;48.690;9.022;2023-01-15T01:06:46;3.53;;;3.43;;
2622;SDS011;1321;48.690;9.022;2023-01-15T01:09:15;3.60;;;3.50;;
2622;SDS011;1321;48.690;9.022;2023-01-15T01:11:44;3.47;;;3.37;;
2622;SDS011;1321;48.690;9.022;2023-01-15T01:14:12;3.60;;;3.50;;
2622;SDS011;1321;48.690;9.022;2023-01-15T01:16:40;3.90;;;3.70;;
2622;SDS011;1321;48.690;9.022;2023-01-15T01:19:09;4.30;;;4.00;;
2622;SDS011;1321;48.690;9.022;2023-01-15T01:21:39;3.73;;;3.50;;
2622;SDS011;1321;48.690;9.022;2023-01-15T01:24:09;3.30;;;3.20;;
2622;SDS011;1321;48.690;9.022;2023-01-15T01:26:39;3.70;;;3.57;;
2622;SDS011;1321;48.690;9.022;2023-01-15T01:29:10;3.30;;;3.20;;
2622;SDS011;1321;48.690;9.022;2023-01-15T01:31:38;3.60;;;3.50;;
2622;SDS011;1321;48.690;9.022;2023-01-15T01:34:07;3.70;;;3.60;;
2622;SDS011;1321;48.690;9.022;2023-01-15T01:36:37;3.67;;;3.57;;
2622;SDS011;1321;48.690;9.022;2023-01-15T01:39:07;4.27;;;4.17;;
2622;SDS011;1321;48.690;9.022;2023-01-15T01:41:40;3.80;;;3.70;;
2622;SDS011;1321;48.690;9.022;2023-01-15T01:47:11;3.90;;;3.80;;
2622;SDS011;1321;48.690;9.022;2023-01-15T01:49:43;3.90;;;3.80;;
2622;SDS011;1321;48.690;9.022;2023-01-15T01:52:16;3.90;;;3.80;;
2622;SDS011;1321;48.690;9.022;2023-01-15T01:54:48;3.80;;;3.70;;
2622;SDS011;1321;48.690;9.022;2023-01-15T01:57:18;4.13;;;4.03;;
2622;SDS011;1321;48.690;9.022;2023-01-15T01:59:48;4.33;;;4.23;;
2622;SDS011;1321;48.690;9.022;2023-01-15T02:02:17;4.03;;;3.93;;
2622;SDS011;1321;48.690;9.022;2023-01-15T02:04:48;3.90;;;3.80;;
2622;SDS011;1321;48.690;9.022;2023-01-15T02:07:16;4.33;;;4.23;;
2622;SDS011;1321;48.690;9.022;2023-01-15T02:09:45;3.87;;;3.77;;
2622;SDS011;1321;48.690;9.022;2023-01-15T02:12:14;3.90;;;3.80;;
2622;SDS011;1321;48.690;9.022;2023-01-15T02:14:53;4.10;;;4.00;;
2622;SDS011;1321;48.690;9.022;2023-01-15T02:17:28;4.10;;;4.00;;
2622;SDS011;1321;48.690;9.022;2023-01-15T02:20:09;4.20;;;4.10;;
2622;SDS011;1321;48.690;9.022;2023-01-15T02:22:50;4.40;;;4.30;;
2622;SDS011;1321;48.690;9.022;2023-01-15T02:25:27;4.00;;;3.90;;
2622;SDS011;1321;48.690;9.022;2023-01-15T02:28:03;4.40;;;4.30;;
2622;SDS011;1321;48.690;9.022;2023-01-15T02:30:38;4.40;;;4.30;;
2622;SDS011;1321;48.690;9.022;2023-01-15T02:33:10;4.40;;;4.30;;
2622;SDS011;1321;48.690;9.022;2023-01-15T02:35:42;4.30;;;4.20;;
2622;SDS011;1321;48.690;9.022;2023-01-15T02:38:14;4.30;;;4.20;;
2622;SDS011;1321;48.690;9.022;2023-01-15T02:40:45;4.30;;;4.20;;
2622;SDS011;1321;48.690;9.022;2023-01-15T02:43:17;4.83;;;4.50;;
2622;SDS011;1321;48.690;9.022;2023-01-15T02:45:47;4.30;;;4.20;;
2622;SDS011;1321;48.690;9.022;2023-01-15T02:48:19;4.50;;;4.40;;
2622;SDS011;1321;48.690;9.022;2023-01-15T02:50:57;4.27;;;4.10;;
2622;SDS011;1321;48.690;9.022;2023-01-15T02:53:28;4.20;;;4.10;;
2622;SDS011;1321;48.690;9.022;2023-01-15T02:55:59;4.40;;;4.30;;
2622;SDS011;1321;48.690;9.022;2023-01-15T02:58:32;4.23;;;4.13;;
2622;SDS011;1321;48.690;9.022;2023-01-15T03:01:05;4.50;;;4.40;;
2622;SDS011;1321;48.690;9.022;2023-01-15T03:03:41;4.70;;;4.60;;
2622;SDS011;1321;48.690;9.022;2023-01-15T03:06:15;3.90;;;3.80;;
2622;SDS011;1321;48.690;9.022;2023-01-15T03:08:48;3.50;;;3.40;;
2622;SDS011;1321;48.690;9.022;2023-01-15T03:11:17;3.40;;;3.30;;
2622;SDS011;1321;48.690;9.022;2023-01-15T03:13:49;3.47;;;3.40;;
2622;SDS011;1321;48.690;9.022;2023-01-15T03:16:24;3.60;;;3.60;;
2622;SDS011;1321;48.690;9.022;2023-01-15T03:19:10;3.77;;;3.67;;
2622;SDS011;1321;48.690;9.022;2023-01-15T03:21:47;3.87;;;3.77;;
2622;SDS011;1321;48.690;9.022;2023-01-15T03:24:20;3.57;;;3.47;;
2622;SDS011;1321;48.690;9.022;2023-01-15T03:26:53;3.53;;;3.53;;
2622;SDS011;1321;48.690;9.022;2023-01-15T03:29:23;3.53;;;3.43;;
2622;SDS011;1321;48.690;9.022;2023-01-15T03:31:55;3.10;;;3.00;;
2622;SDS011;1321;48.690;9.022;2023-01-15T03:34:25;3.70;;;3.60;;
2622;SDS011;1321;48.690;9.022;2023-01-15T03:37:00;3.50;;;3.40;;
2622;SDS011;1321;48.690;9.022;2023-01-15T03:39:29;3.40;;;3.30;;
2622;SDS011;1321;48.690;9.022;2023-01-15T03:42:00;3.60;;;3.50;;
2622;SDS011;1321;48.690;9.022;2023-01-15T03:44:37;3.50;;;3.40;;
2622;SDS011;1321;48.690;9.022;2023-01-15T03:47:12;3.70;;;3.60;;
2622;SDS011;1321;48.690;9.022;2023-01-15T03:49:55;3.60;;;3.50;;
2622;SDS011;1321;48.690;9.022;2023-01-15T03:52:29;3.53;;;3.43;;
2622;SDS011;1321;48.690;9.022;2023-01-15T03:55:03;3.70;;;3.60;;
2622;SDS011;1321;48.690;9.022;2023-01-15T03:57:39;3.60;;;3.50;;
2622;SDS011;1321;48.690;9.022;2023-01-15T04:00:14;3.80;;;3.70;;
2622;SDS011;1321;48.690;9.022;2023-01-15T04:02:47;3.03;;;3.03;;
2622;SDS011;1321;48.690;9.022;2023-01-15T04:05:17;3.33;;;3.33;;
2622;SDS011;1321;48.690;9.022;2023-01-15T04:07:45;2.90;;;2.90;;
2622;SDS011;1321;48.690;9.022;2023-01-15T04:10:14;3.00;;;3.00;;
2622;SDS011;1321;48.690;9.022;2023-01-15T04:12:43;3.30;;;3.20;;
2622;SDS011;1321;48.690;9.022;2023-01-15T04:15:11;3.00;;;3.00;;
2622;SDS011;1321;48.690;9.022;2023-01-15T04:17:41;3.20;;;3.20;;
2622;SDS011;1321;48.690;9.022;2023-01-15T04:20:10;3.00;;;3.00;;
2622;SDS011;1321;48.690;9.022;2023-01-15T04:22:39;3.83;;;3.73;;
2622;SDS011;1321;48.690;9.022;2023-01-15T04:25:07;3.10;;;3.10;;
2622;SDS011;1321;48.690;9.022;2023-01-15T04:27:36;2.90;;;2.90;;
2622;SDS011;1321;48.690;9.022;2023-01-15T04:30:05;3.10;;;3.00;;
2622;SDS011;1321;48.690;9.022;2023-01-15T04:32:35;4.30;;;3.00;;
2622;SDS011;1321;48.690;9.022;2023-01-15T04:35:04;3.00;;;3.00;;
2622;SDS011;1321;48.690;9.022;2023-01-15T04:37:32;3.20;;;3.20;;
2622;SDS011;1321;48.690;9.022;2023-01-15T04:40:00;3.20;;;3.10;;
2622;SDS011;1321;48.690;9.022;2023-01-15T04:42:29;3.40;;;3.30;;
2622;SDS011;1321;48.690;9.022;2023-01-15T04:45:14;3.20;;;3.20;;
2622;SDS011;1321;48.690;9.022;2023-01-15T04:47:44;3.20;;;3.10;;
2622;SDS011;1321;48.690;9.022;2023-01-15T04:50:12;2.53;;;2.53;;
2622;SDS011;1321;48.690;9.022;2023-01-15T04:52:40;2.20;;;2.20;;
2622;SDS011;1321;48.690;9.022;2023-01-15T04:55:08;2.40;;;2.40;;
2622;SDS011;1321;48.690;9.022;2023-01-15T04:57:36;2.70;;;2.70;;
2622;SDS011;1321;48.690;9.022;2023-01-15T05:00:05;2.57;;;2.43;;
2622;SDS011;1321;48.690;9.022;2023-01-15T05:02:34;2.57;;;2.47;;
2622;SDS011;1321;48.690;9.022;2023-01-15T05:05:04;2.30;;;2.30;;
2622;SDS011;1321;48.690;9.022;2023-01-15T05:07:32;2.10;;;2.10;;
2622;SDS011;1321;48.690;9.022;2023-01-15T05:10:00;2.20;;;2.20;;
2622;SDS011;1321;48.690;9.022;2023-01-15T05:12:29;2.30;;;2.30;;
2622;SDS011;1321;48.690;9.022;2023-01-15T05:14:57;2.40;;;2.40;;
2622;SDS011;1321;48.690;9.022;2023-01-15T05:17:25;3.30;;;3.10;;
2622;SDS011;1321;48.690;9.022;2023-01-15T05:19:53;2.37;;;2.37;;
2622;SDS011;1321;48.690;9.022;2023-01-15T05:22:22;2.30;;;2.20;;
2622;SDS011;1321;48.690;9.022;2023-01-15T05:24:51;2.20;;;2.20;;
2622;SDS011;1321;48.690;9.022;2023-01-15T05:27:19;2.37;;;2.37;;
2622;SDS011;1321;48.690;9.022;2023-01-15T05:29:47;2.30;;;2.30;;
2622;SDS011;1321;48.690;9.022;2023-01-15T05:32:15;2.43;;;2.43;;
2622;SDS011;1321;48.690;9.022;2023-01-15T05:34:44;3.30;;;3.20;;
2622;SDS011;1321;48.690;9.022;2023-01-15T05:37:12;2.83;;;2.83;;
2622;SDS011;1321;48.690;9.022;2023-01-15T05:39:41;3.00;;;3.00;;
2622;SDS011;1321;48.690;9.022;2023-01-15T05:42:10;2.80;;;2.80;;
2622;SDS011;1321;48.690;9.022;2023-01-15T05:44:38;2.70;;;2.70;;
2622;SDS011;1321;48.690;9.022;2023-01-15T05:47:07;2.43;;;2.43;;
2622;SDS011;1321;48.690;9.022;2023-01-15T05:49:36;2.37;;;2.37;;
2622;SDS011;1321;48.690;9.022;2023-01-15T05:52:04;2.30;;;2.30;;
2622;SDS011;1321;48.690;9.022;2023-01-15T05:54:34;2.40;;;2.40;;
2622;SDS011;1321;48.690;9.022;2023-01-15T05:57:04;2.30;;;2.30;;
2622;SDS011;1321;48.690;9.022;2023-01-15T05:59:32;2.10;;;2.10;;
2622;SDS011;1321;48.690;9.022;2023-01-15T06:02:00;2.00;;;2.00;;
2622;SDS011;1321;48.690;9.022;2023-01-15T06:04:28;2.10;;;2.10;;
2622;SDS011;1321;48.690;9.022;2023-01-15T06:06:56;1.90;;;1.90;;
2622;SDS011;1321;48.690;9.022;2023-01-15T06:09:25;1.90;;;1.90;;
2622;SDS011;1321;48.690;9.022;2023-01-15T06:11:54;2.40;;;2.40;;
2622;SDS011;1321;48.690;9.022;2023-01-15T06:14:24;2.10;;;2.00;;
2622;SDS011;1321;48.690;9.022;2023-01-15T06:16:52;1.90;;;1.90;;
2622;SDS011;1321;48.690;9.022;2023-01-15T06:19:20;1.90;;;1.90;;
2622;SDS011;1321;48.690;9.022;2023-01-15T06:21:48;1.97;;;1.97;;
2622;SDS011;1321;48.690;9.022;2023-01-15T06:24:16;2.00;;;2.00;;
2622;SDS011;1321;48.690;9.022;2023-01-15T06:26:45;2.00;;;2.00;;
2622;SDS011;1321;48.690;9.022;2023-01-15T06:29:14;1.90;;;1.90;;
2622;SDS011;1321;48.690;9.022;2023-01-15T06:31:45;1.90;;;1.90;;
2622;SDS011;1321;48.690;9.022;2023-01-15T06:34:14;1.90;;;1.90;;
2622;SDS011;1321;48.690;9.022;2023-01-15T06:36:42;1.80;;;1.80;;
2622;SDS011;1321;48.690;9.022;2023-01-15T06:39:11;1.93;;;1.93;;
2622;SDS011;1321;48.690;9.022;2023-01-15T06:41:39;1.80;;;1.80;;
2622;SDS011;1321;48.690;9.022;2023-01-15T06:44:25;1.60;;;1.60;;
2622;SDS011;1321;48.690;9.022;2023-01-15T06:47:12;1.70;;;1.70;;
2622;SDS011;1321;48.690;9.022;2023-01-15T06:49:50;1.70;;;1.70;;
2622;SDS011;1321;48.690;9.022;2023-01-15T06:52:21;1.60;;;1.60;;
2622;SDS011;1321;48.690;9.022;2023-01-15T06:54:50;1.50;;;1.50;;
2622;SDS011;1321;48.690;9.022;2023-01-15T06:57:18;1.80;;;1.50;;
2622;SDS011;1321;48.690;9.022;2023-01-15T06:59:47;1.50;;;1.50;;
2622;SDS011;1321;48.690;9.022;2023-01-15T07:02:17;1.40;;;1.40;;
2622;SDS011;1321;48.690;9.022;2023-01-15T07:04:47;1.40;;;1.40;;
2622;SDS011;1321;48.690;9.022;2023-01-15T07:07:15;1.40;;;1.40;;
2622;SDS011;1321;48.690;9.022;2023-01-15T07:09:44;1.60;;;1.50;;
2622;SDS011;1321;48.690;9.022;2023-01-15T07:12:13;1.70;;;1.70;;
2622;SDS011;1321;48.690;9.022;2023-01-15T07:14:41;1.90;;;1.80;;
2622;SDS011;1321;48.690;9.022;2023-01-15T07:17:09;1.50;;;1.40;;
2622;SDS011;1321;48.690;9.022;2023-01-15T07:19:39;1.40;;;1.40;;
2622;SDS011;1321;48.690;9.022;2023-01-15T07:22:08;1.37;;;1.37;;
2622;SDS011;1321;48.690;9.022;2023-01-15T07:24:37;1.30;;;1.30;;
2622;SDS011;1321;48.690;9.022;2023-01-15T07:27:05;1.40;;;1.40;;
2622;SDS011;1321;48.690;9.022;2023-01-15T07:29:33;1.40;;;1.40;;
2622;SDS011;1321;48.690;9.022;2023-01-15T07:32:02;1.50;;;1.50;;
2622;SDS011;1321;48.690;9.022;2023-01-15T07:34:31;1.37;;;1.37;;
2622;SDS011;1321;48.690;9.022;2023-01-15T07:37:00;1.73;;;1.63;;
2622;SDS011;1321;48.690;9.022;2023-01-15T07:39:29;1.50;;;1.50;;
2622;SDS011;1321;48.690;9.022;2023-01-15T07:41:58;1.43;;;1.43;;
2622;SDS011;1321;48.690;9.022;2023-01-15T07:44:43;1.23;;;1.23;;
2622;SDS011;1321;48.690;9.022;2023-01-15T07:47:29;1.40;;;1.40;;
2622;SDS011;1321;48.690;9.022;2023-01-15T07:50:15;1.85;;;1.75;;
2622;SDS011;1321;48.690;9.022;2023-01-15T07:52:46;1.30;;;1.30;;
2622;SDS011;1321;48.690;9.022;2023-01-15T07:55:18;1.30;;;1.30;;
2622;SDS011;1321;48.690;9.022;2023-01-15T07:57:47;1.20;;;1.20;;
2622;SDS011;1321;48.690;9.022;2023-01-15T08:00:18;1.30;;;1.30;;
2622;SDS011;1321;48.690;9.022;2023-01-15T08:02:47;1.10;;;1.10;;
2622;SDS011;1321;48.690;9.022;2023-01-15T08:05:16;1.47;;;1.47;;
2622;SDS011;1321;48.690;9.022;2023-01-15T08:07:46;1.63;;;1.63;;
2622;SDS011;1321;48.690;9.022;2023-01-15T08:10:16;1.30;;;1.30;;
2622;SDS011;1321;48.690;9.022;2023-01-15T08:12:45;1.33;;;1.33;;
2622;SDS011;1321;48.690;9.022;2023-01-15T08:15:36;1.60;;;1.50;;
2622;SDS011;1321;48.690;9.022;2023-01-15T08:18:06;1.37;;;1.37;;
2622;SDS011;1321;48.690;9.022;2023-01-15T08:20:34;1.30;;;1.30;;
2622;SDS011;1321;48.690;9.022;2023-01-15T08:23:04;1.40;;;1.40;;
2622;SDS011;1321;48.690;9.022;2023-01-15T08:25:32;1.30;;;1.30;;
2622;SDS011;1321;48.690;9.022;2023-01-15T08:28:00;1.20;;;1.20;;
2622;SDS011;1321;48.690;9.022;2023-01-15T08:30:29;1.23;;;1.23;;
2622;SDS011;1321;48.690;9.022;2023-01-15T08:32:58;1.30;;;1.30;;
2622;SDS011;1321;48.690;9.022;2023-01-15T08:35:28;1.30;;;1.30;;
2622;SDS011;1321;48.690;9.022;2023-01-15T08:37:56;1.50;;;1.50;;
2622;SDS011;1321;48.690;9.022;2023-01-15T08:40:26;1.50;;;1.40;;
2622;SDS011;1321;48.690;9.022;2023-01-15T08:42:54;1.30;;;1.30;;
2622;SDS011;1321;48.690;9.022;2023-01-15T08:45:22;2.00;;;1.80;;
2622;SDS011;1321;48.690;9.022;2023-01-15T08:47:53;1.70;;;1.60;;
2622;SDS011;1321;48.690;9.022;2023-01-15T08:50:22;1.30;;;1.30;;
2622;SDS011;1321;48.690;9.022;2023-01-15T08:52:50;1.90;;;1.80;;
2622;SDS011;1321;48.690;9.022;2023-01-15T08:55:18;1.70;;;1.60;;
2622;SDS011;1321;48.690;9.022;2023-01-15T08:57:48;1.40;;;1.40;;
2622;SDS011;1321;48.690;9.022;2023-01-15T09:00:17;1.70;;;1.60;;
2622;SDS011;1321;48.690;9.022;2023-01-15T09:02:47;1.30;;;1.30;;
2622;SDS011;1321;48.690;9.022;2023-01-15T09:05:15;1.13;;;1.13;;
2622;SDS011;1321;48.690;9.022;2023-01-15T09:07:44;1.20;;;1.20;;
2622;SDS011;1321;48.690;9.022;2023-01-15T09:10:12;1.20;;;1.20;;
2622;SDS011;1321;48.690;9.022;2023-01-15T09:12:40;1.20;;;1.20;;
2622;SDS011;1321;48.690;9.022;2023-01-15T09:15:10;1.10;;;1.10;;
2622;SDS011;1321;48.690;9.022;2023-01-15T09:17:38;1.03;;;1.03;;
2622;SDS011;1321;48.690;9.022;2023-01-15T09:20:09;1.00;;;1.00;;
2622;SDS011;1321;48.690;9.022;2023-01-15T09:22:39;1.00;;;1.00;;
2622;SDS011;1321;48.690;9.022;2023-01-15T09:25:07;1.00;;;1.00;;
2622;SDS011;1321;48.690;9.022;2023-01-15T09:27:35;2.50;;;2.30;;
2622;SDS011;1321;48.690;9.022;2023-01-15T09:30:06;3.33;;;3.10;;
2622;SDS011;1321;48.690;9.022;2023-01-15T09:32:36;1.20;;;1.20;;
2622;SDS011;1321;48.690;9.022;2023-01-15T09:35:04;1.00;;;1.00;;
2622;SDS011;1321;48.690;9.022;2023-01-15T09:37:33;1.00;;;1.00;;
2622;SDS011;1321;48.690;9.022;2023-01-15T09:40:01;1.10;;;1.10;;
2622;SDS011;1321;48.690;9.022;2023-01-15T09:42:35;1.10;;;1.10;;
2622;SDS011;1321;48.690;9.022;2023-01-15T09:45:15;1.00;;;1.00;;
2622;SDS011;1321;48.690;9.022;2023-01-15T09:47:52;1.00;;;1.00;;
2622;SDS011;1321;48.690;9.022;2023-01-15T09:50:47;0.90;;;0.90;;
2622;SDS011;1321;48.690;9.022;2023-01-15T09:53:28;1.33;;;1.30;;
2622;SDS011;1321;48.690;9.022;2023-01-15T09:56:11;1.27;;;1.20;;
2622;SDS011;1321;48.690;9.022;2023-01-15T09:58:46;1.90;;;1.00;;
2622;SDS011;1321;48.690;9.022;2023-01-15T10:01:15;1.10;;;1.10;;
2622;SDS011;1321;48.690;9.022;2023-01-15T10:03:51;1.80;;;1.43;;
2622;SDS011;1321;48.690;9.022;2023-01-15T10:06:26;1.20;;;1.20;;
2622;SDS011;1321;48.690;9.022;2023-01-15T10:08:58;1.53;;;1.20;;
2622;SDS011;1321;48.690;9.022;2023-01-15T10:11:37;1.20;;;1.20;;
2622;SDS011;1321;48.690;9.022;2023-01-15T10:14:36;1.23;;;1.17;;
2622;SDS011;1321;48.690;9.022;2023-01-15T10:17:21;1.20;;;1.20;;
2622;SDS011;1321;48.690;9.022;2023-01-15T10:19:55;1.10;;;1.10;;
2622;SDS011;1321;48.690;9.022;2023-01-15T10:22:27;1.30;;;1.20;;
2622;SDS011;1321;48.690;9.022;2023-01-15T10:25:07;1.20;;;1.20;;
2622;SDS011;1321;48.690;9.022;2023-01-15T10:27:41;1.07;;;1.07;;
2622;SDS011;1321;48.690;9.022;2023-01-15T10:30:14;1.30;;;1.20;;
2622;SDS011;1321;48.690;9.022;2023-01-15T10:32:49;1.70;;;1.60;;
2622;SDS011;1321;48.690;9.022;2023-01-15T10:35:35;1.53;;;1.10;;
2622;SDS011;1321;48.690;9.022;2023-01-15T10:38:11;1.00;;;1.00;;
2622;SDS011;1321;48.690;9.022;2023-01-15T10:40:55;1.00;;;1.00;;
2622;SDS011;1321;48.690;9.022;2023-01-15T10:43:50;1.00;;;1.00;;
2622;SDS011;1321;48.690;9.022;2023-01-15T10:46:25;1.10;;;1.00;;
2622;SDS011;1321;48.690;9.022;2023-01-15T10:49:01;2.10;;;1.57;;
2622;SDS011;1321;48.690;9.022;2023-01-15T10:51:36;1.03;;;1.03;;
2622;SDS011;1321;48.690;9.022;2023-01-15T10:54:11;1.00;;;1.00;;
2622;SDS011;1321;48.690;9.022;2023-01-15T10:56:50;0.97;;;0.97;;
2622;SDS011;1321;48.690;9.022;2023-01-15T10:59:31;0.97;;;0.97;;
2622;SDS011;1321;48.690;9.022;2023-01-15T11:02:12;0.80;;;0.80;;
2622;SDS011;1321;48.690;9.022;2023-01-15T11:04:49;0.90;;;0.90;;
2622;SDS011;1321;48.690;9.022;2023-01-15T11:07:21;0.97;;;0.97;;
2622;SDS011;1321;48.690;9.022;2023-01-15T11:09:53;1.40;;;1.40;;
2622;SDS011;1321;48.690;9.022;2023-01-15T11:12:22;1.73;;;1.30;;
2622;SDS011;1321;48.690;9.022;2023-01-15T11:15:12;1.20;;;1.20;;
2622;SDS011;1321;48.690;9.022;2023-01-15T11:18:00;1.00;;;1.00;;
2622;SDS011;1321;48.690;9.022;2023-01-15T11:20:46;0.90;;;0.90;;
2622;SDS011;1321;48.690;9.022;2023-01-15T11:23:18;1.10;;;1.10;;
2622;SDS011;1321;48.690;9.022;2023-01-15T11:25:49;1.00;;;1.00;;
2622;SDS011;1321;48.690;9.022;2023-01-15T11:28:28;1.00;;;1.00;;
2622;SDS011;1321;48.690;9.022;2023-01-15T11:30:58;1.10;;;1.00;;
2622;SDS011;1321;48.690;9.022;2023-01-15T11:33:26;1.13;;;1.10;;
2622;SDS011;1321;48.690;9.022;2023-01-15T11:35:58;1.10;;;1.10;;
2622;SDS011;1321;48.690;9.022;2023-01-15T11:38:29;0.90;;;0.90;;
2622;SDS011;1321;48.690;9.022;2023-01-15T11:41:15;0.90;;;0.90;;
2622;SDS011;1321;48.690;9.022;2023-01-15T11:44:16;0.93;;;0.93;;
2622;SDS011;1321;48.690;9.022;2023-01-15T11:47:07;1.10;;;1.00;;
2622;SDS011;1321;48.690;9.022;2023-01-15T11:49:54;0.90;;;0.90;;
2622;SDS011;1321;48.690;9.022;2023-01-15T11:52:52;0.90;;;0.90;;
2622;SDS011;1321;48.690;9.022;2023-01-15T11:55:24;0.90;;;0.90;;
2622;SDS011;1321;48.690;9.022;2023-01-15T11:57:54;0.90;;;0.90;;
2622;SDS011;1321;48.690;9.022;2023-01-15T12:00:24;0.90;;;0.90;;
2622;SDS011;1321;48.690;9.022;2023-01-15T12:02:56;0.80;;;0.80;;
2622;SDS011;1321;48.690;9.022;2023-01-15T12:05:29;1.00;;;1.00;;
2622;SDS011;1321;48.690;9.022;2023-01-15T12:08:00;0.90;;;0.90;;
2622;SDS011;1321;48.690;9.022;2023-01-15T12:10:38;1.00;;;1.00;;
2622;SDS011;1321;48.690;9.022;2023-01-15T12:13:52;1.20;;;1.10;;
2622;SDS011;1321;48.690;9.022;2023-01-15T12:16:36;0.80;;;0.80;;
2622;SDS011;1321;48.690;9.022;2023-01-15T12:19:09;1.00;;;1.00;;
2622;SDS011;1321;48.690;9.022;2023-01-15T12:21:53;0.90;;;0.90;;
2622;SDS011;1321;48.690;9.022;2023-01-15T12:24:50;0.83;;;0.80;;
2622;SDS011;1321;48.690;9.022;2023-01-15T12:27:51;1.60;;;0.80;;
2622;SDS011;1321;48.690;9.022;2023-01-15T12:33:17;0.80;;;0.80;;
2622;SDS011;1321;48.690;9.022;2023-01-15T12:35:51;1.53;;;1.43;;
2622;SDS011;1321;48.690;9.022;2023-01-15T12:38:26;0.90;;;0.90;;
2622;SDS011;1321;48.690;9.022;2023-01-15T12:41:06;1.00;;;1.00;;
2622;SDS011;1321;48.690;9.022;2023-01-15T12:43:39;1.03;;;0.90;;
2622;SDS011;1321;48.690;9.022;2023-01-15T12:46:30;1.10;;;1.10;;
2622;SDS011;1321;48.690;9.022;2023-01-15T12:49:02;1.90;;;1.20;;
2622;SDS011;1321;48.690;9.022;2023-01-15T12:51:38;1.00;;;1.00;;
2622;SDS011;1321;48.690;9.022;2023-01-15T12:54:14;1.00;;;1.00;;
2622;SDS011;1321;48.690;9.022;2023-01-15T12:56:49;1.10;;;1.10;;
2622;SDS011;1321;48.690;9.022;2023-01-15T12:59:29;1.07;;;1.00;;
2622;SDS011;1321;48.690;9.022;2023-01-15T13:02:09;1.20;;;1.10;;
2622;SDS011;1321;48.690;9.022;2023-01-15T13:04:46;1.27;;;1.23;;
2622;SDS011;1321;48.690;9.022;2023-01-15T13:07:21;1.10;;;1.07;;
2622;SDS011;1321;48.690;9.022;2023-01-15T13:09:55;1.00;;;1.00;;
2622;SDS011;1321;48.690;9.022;2023-01-15T13:12:32;1.00;;;1.00;;
2622;SDS011;1321;48.690;9.022;2023-01-15T13:15:03;0.90;;;0.90;;
2622;SDS011;1321;48.690;9.022;2023-01-15T13:17:32;1.57;;;0.93;;
2622;SDS011;1321;48.690;9.022;2023-01-15T13:23:06;1.13;;;1.00;;
2622;SDS011;1321;48.690;9.022;2023-01-15T13:25:41;1.20;;;1.20;;
2622;SDS011;1321;48.690;9.022;2023-01-15T13:28:24;1.10;;;1.10;;
2622;SDS011;1321;48.690;9.022;2023-01-15T13:31:08;1.20;;;1.20;;
2622;SDS011;1321;48.690;9.022;2023-01-15T13:33:45;1.10;;;1.10;;
2622;SDS011;1321;48.690;9.022;2023-01-15T13:36:19;1.00;;;1.00;;
2622;SDS011;1321;48.690;9.022;2023-01-15T13:38:52;1.00;;;1.00;;
2622;SDS011;1321;48.690;9.022;2023-01-15T13:41:24;1.20;;;1.10;;
2622;SDS011;1321;48.690;9.022;2023-01-15T13:44:15;1.07;;;1.07;;
2622;SDS011;1321;48.690;9.022;2023-01-15T13:46:46;2.57;;;2.37;;
2622;SDS011;1321;48.690;9.022;2023-01-15T13:49:26;1.97;;;1.87;;
2622;SDS011;1321;48.690;9.022;2023-01-15T13:51:58;2.90;;;1.03;;
2622;SDS011;1321;48.690;9.022;2023-01-15T13:54:29;1.00;;;1.00;;
2622;SDS011;1321;48.690;9.022;2023-01-15T13:57:08;1.57;;;1.13;;
2622;SDS011;1321;48.690;9.022;2023-01-15T13:59:48;1.23;;;1.20;;
2622;SDS011;1321;48.690;9.022;2023-01-15T14:02:23;1.10;;;1.10;;
2622;SDS011;1321;48.690;9.022;2023-01-15T14:04:53;1.20;;;1.20;;
2622;SDS011;1321;48.690;9.022;2023-01-15T14:07:30;1.37;;;1.10;;
2622;SDS011;1321;48.690;9.022;2023-01-15T14:10:07;2.20;;;1.20;;
2622;SDS011;1321;48.690;9.022;2023-01-15T14:12:52;1.20;;;1.20;;
2622;SDS011;1321;48.690;9.022;2023-01-15T14:15:30;3.33;;;1.37;;
2622;SDS011;1321;48.690;9.022;2023-01-15T14:18:11;1.53;;;1.10;;
2622;SDS011;1321;48.690;9.022;2023-01-15T14:20:55;3.70;;;1.30;;
2622;SDS011;1321;48.690;9.022;2023-01-15T14:23:37;1.50;;;1.20;;
2622;SDS011;1321;48.690;9.022;2023-01-15T14:26:22;1.23;;;1.10;;
2622;SDS011;1321;48.690;9.022;2023-01-15T14:29:01;1.17;;;1.07;;
2622;SDS011;1321;48.690;9.022;2023-01-15T14:31:44;2.03;;;1.20;;
2622;SDS011;1321;48.690;9.022;2023-01-15T14:34:19;2.50;;;2.30;;
2622;SDS011;1321;48.690;9.022;2023-01-15T14:36:51;1.30;;;1.10;;
2622;SDS011;1321;48.690;9.022;2023-01-15T14:39:25;2.47;;;1.50;;
2622;SDS011;1321;48.690;9.022;2023-01-15T14:42:01;1.47;;;1.10;;
2622;SDS011;1321;48.690;9.022;2023-01-15T14:44:58;1.93;;;1.70;;
2622;SDS011;1321;48.690;9.022;2023-01-15T14:47:31;1.37;;;1.20;;
2622;SDS011;1321;48.690;9.022;2023-01-15T14:52:52;1.00;;;1.00;;
2622;SDS011;1321;48.690;9.022;2023-01-15T14:55:21;1.00;;;1.00;;
2622;SDS011;1321;48.690;9.022;2023-01-15T14:57:52;1.30;;;1.20;;
2622;SDS011;1321;48.690;9.022;2023-01-15T15:00:25;1.20;;;1.00;;
2622;SDS011;1321;48.690;9.022;2023-01-15T15:03:00;1.90;;;0.90;;
2622;SDS011;1321;48.690;9.022;2023-01-15T15:05:31;1.20;;;1.00;;
2622;SDS011;1321;48.690;9.022;2023-01-15T15:08:01;1.20;;;1.10;;
2622;SDS011;1321;48.690;9.022;2023-01-15T15:10:31;0.90;;;0.90;;
2622;SDS011;1321;48.690;9.022;2023-01-15T15:13:07;1.07;;;1.07;;
2622;SDS011;1321;48.690;9.022;2023-01-15T15:15:42;1.00;;;1.00;;
2622;SDS011;1321;48.690;9.022;2023-01-15T15:18:20;2.97;;;1.07;;
2622;SDS011;1321;48.690;9.022;2023-01-15T15:20:58;1.20;;;1.13;;
2622;SDS011;1321;48.690;9.022;2023-01-15T15:23:33;1.90;;;0.93;;
2622;SDS011;1321;48.690;9.022;2023-01-15T15:26:16;3.60;;;1.33;;
2622;SDS011;1321;48.690;9.022;2023-01-15T15:28:57;1.10;;;0.90;;
2622;SDS011;1321;48.690;9.022;2023-01-15T15:31:26;0.90;;;0.90;;
2622;SDS011;1321;48.690;9.022;2023-01-15T15:33:57;1.17;;;1.07;;
2622;SDS011;1321;48.690;9.022;2023-01-15T15:36:27;1.07;;;1.07;;
2622;SDS011;1321;48.690;9.022;2023-01-15T15:38:58;1.07;;;1.00;;
2622;SDS011;1321;48.690;9.022;2023-01-15T15:41:29;1.23;;;1.00;;
2622;SDS011;1321;48.690;9.022;2023-01-15T15:44:21;1.00;;;0.90;;
2622;SDS011;1321;48.690;9.022;2023-01-15T15:47:16;1.33;;;1.00;;
2622;SDS011;1321;48.690;9.022;2023-01-15T15:50:02;1.03;;;1.03;;
2622;SDS011;1321;48.690;9.022;2023-01-15T15:52:33;1.23;;;0.93;;
2622;SDS011;1321;48.690;9.022;2023-01-15T15:55:02;1.67;;;1.00;;
2622;SDS011;1321;48.690;9.022;2023-01-15T15:57:32;1.00;;;1.00;;
2622;SDS011;1321;48.690;9.022;2023-01-15T16:00:01;2.40;;;1.10;;
2622;SDS011;1321;48.690;9.022;2023-01-15T16:02:30;1.10;;;1.10;;
2622;SDS011;1321;48.690;9.022;2023-01-15T16:05:03;1.47;;;1.20;;